Mansonville, Canada
Current Conditions -  °F | °C
As of 12:35 PM on Monday 22 Dec 2014 (Local Time) from KEFK Reporting Station
Overcast Overcast  
Wind Chill: 27°   Ceiling: 3200
Heat Index: 27°   Visibility: 7mi
Dew Point: 22°   Wind: 0mph
Humidity: 83%   Direction: NA
Pressure: 30.31"   Gusts: NA
Location:  45.05°N, 72.39°W
Report Text: KEFK 221735Z AUTO 00000KT 7SM OVC032 M03/M05 A3031 RMK AO2 T10301055
Loading
Personal Weather Stations






























Interactive Weather Map New forecast layout! Learn more

10-Day Weather Forecast

Advertisements
Track Severe Weather on mobile